Messwerte New Orleans

Temperatur

Temperatur
°C
1624154400 21.00 21.00 26
1624158000 22.00 22.00
1624161600 23.00 23.00 26
1624165200 0.00 0.00 26
1624168800 1.00 1.00 26
1624172400 2.00 2.00 26
1624176000 3.00 3.00 24
1624179600 4.00 4.00
1624183200 5.00 5.00
1624186800 6.00 6.00 24
1624190400 7.00 7.00 26
1624194000 8.00 8.00 28
1624197600 9.00 9.00 29
1624201200 10.00 10.00 28
1624204800 11.00 11.00 28
1624208400 12.00 12.00 28
1624212000 13.00 13.00 29
1624215600 14.00 14.00 28
1624219200 15.00 15.00 28
1624222800 16.00 16.00 28
1624226400 17.00 17.00 27
1624230000 18.00 18.00 27
1624233600 19.00 19.00
1624237200 20.00 20.00 26

Aktuellste Messwerte

Temperatur
26 °C
Feuchtigkeit
90 %
Wind
20 km/hWindrichtung: Südwest
Luftdruck
1014 hPa
Messzeit: 20. Juni 2021, 20.00Datenquelle: METAR

Weitere Messstationen in der Nähe

Messstation Temperatur Entfernung
New Orleans 26 °C 26 km
Galliano 26 °C 48 km
Slidell 24 °C 60 km
Houma-Terrebonne 27 °C 66 km
Gulfport 26 °C 76 km
Hammond 23 °C 85 km
Biloxi 26 °C 126 km

Wind

Windrichtung Böen Mittelwind
° km/h km/h
1624154400 21.00 20.00 - 21.00 200° 10
1624158000 22.00 21.00 - 22.00
1624161600 23.00 22.00 - 23.00 220° 10
1624165200 0.00 23.00 - 0.00 220° 10
1624168800 1.00 0.00 - 1.00 240° 5
1624172400 2.00 1.00 - 2.00 220° 5
1624176000 3.00 2.00 - 3.00 200° 10
1624179600 4.00 3.00 - 4.00
1624183200 5.00 4.00 - 5.00
1624186800 6.00 5.00 - 6.00 200° 5
1624190400 7.00 6.00 - 7.00 0
1624194000 8.00 7.00 - 8.00 170° 5
1624197600 9.00 8.00 - 9.00 200° 15
1624201200 10.00 9.00 - 10.00 220° 35 20
1624204800 11.00 10.00 - 11.00 220° 10
1624208400 12.00 11.00 - 12.00 190° 15
1624212000 13.00 12.00 - 13.00 170° 45 30
1624215600 14.00 13.00 - 14.00 180° 30
1624219200 15.00 14.00 - 15.00 210° 40 25
1624222800 16.00 15.00 - 16.00 220° 45 30
1624226400 17.00 16.00 - 17.00 220° 45 30
1624230000 18.00 17.00 - 18.00 210° 40 20
1624233600 19.00 18.00 - 19.00
1624237200 20.00 19.00 - 20.00 220° 20

Ihre Wetterstation

Fehlt Ihre Wetterstation auf unserem Portal?

Schreiben Sie an network@meteonews.ch

Klima

Wann ist es am wärmsten? Wann regnet es am wenigsten? Unsere Klimadaten geben Auskunft.